CheckWX is a tool to help pilots better visualize weather data.  It is not intended as a substitute for an official pre-flight weather briefing.

12:25:57 UTC

EGMC METAR
Southend Airport
Southend, United Kingdom
Current

36 mins ago

EGMC 271150Z 06014KT 9999 FEW020 18/12 Q1030
Observed
Jun-27 @ 11:50 UTC
Wind
  • 060° at 14 KTS
Visibility
10,000+ meters
Flight Rules
VFR
Cloud Levels
  • Few at 2,000' AGL
Temperature
18°C / 64°F
Dewpoint
12°C / 54°F
Humidity
68%
Altimeter
30.41" Hg
Pressure
1029.92 hPa
Previous

1 hour ago

EGMC 271120Z 07014KT 040V100 9999 FEW020 18/12 Q1031
Observed
Jun-27 @ 11:20 UTC
Wind
  • 070° at 14 KTS
Visibility
10,000+ meters
Flight Rules
VFR
Cloud Levels
  • Few at 2,000' AGL
Temperature
18°C / 64°F
Dewpoint
12°C / 54°F
Humidity
68%
Altimeter
30.44" Hg
Pressure
1030.92 hPa
Previous

2 hours ago

EGMC 271050Z 07014KT 040V110 9999 FEW021 18/12 Q1030
Observed
Jun-27 @ 10:50 UTC
Wind
  • 070° at 14 KTS
Visibility
10,000+ meters
Flight Rules
VFR
Cloud Levels
  • Few at 2,100' AGL
Temperature
18°C / 64°F
Dewpoint
12°C / 54°F
Humidity
68%
Altimeter
30.41" Hg
Pressure
1029.92 hPa